Mold, United Kingdom
Current Conditions -  °F | °C
As of 12:50 PM on Tuesday 21 Oct 2014 (Local Time) from EGNR Reporting Station
Scattered Clouds Scattered Clouds  
Wind Chill: 52°   Ceiling: Unl
Heat Index: 52°   Visibility: 6mi
Dew Point: 45°   Wind: 24mph
Humidity: 76%   Direction: 290°WNW
Pressure: 29.68"   Gusts: 40mph
Location:  53.17°N, 3.14°W
Report Text: EGNR 211150Z 29021G35KT 9999 FEW015 SCT039 11/07 Q1005
Loading
Personal Weather Stations






























Interactive Weather Map
Tropical Storm Tracking
New forecast layout! Learn more

10-Day Weather Forecast

Advertisements
Track Severe Weather on mobile